Time;durP1;ratioP1;P1;durP2;ratioP2;P2;SDS_P1;SDS_P2;PMS_P1;PMS_P2;Temp;Humidity;BMP_temperature;BMP_pressure;BME280_temperature;BME280_humidity;BME280_pressure;Samples;Min_cycle;Max_cycle;Signal;HPM_P1;HPM_P2
2022/09/12 00:01:44;;;;;;;20.00;15.40;;;;;;;13.78;90.88;101667.34;5069558;28;20040;-57
2022/09/12 00:04:10;;;;;;;20.05;15.18;;;;;;;13.73;90.78;101662.50;5070484;28;20453;-55
2022/09/12 00:06:36;;;;;;;20.83;15.57;;;;;;;13.78;91.07;101657.50;5072297;28;20035;-54
2022/09/12 00:09:10;;;;;;;22.40;16.67;;;;;;;13.70;90.97;101654.81;5074516;28;20116;-56
2022/09/12 00:11:38;;;;;;;23.23;17.27;;;;;;;13.60;91.13;101649.63;5075148;28;20111;-57
2022/09/12 00:14:04;;;;;;;21.30;17.30;;;;;;;13.63;91.39;101656.47;5065263;28;20223;-55
2022/09/12 00:16:32;;;;;;;24.02;18.30;;;;;;;13.58;91.36;101652.44;5081446;28;20115;-55
2022/09/12 00:18:57;;;;;;;21.70;17.40;;;;;;;13.58;90.92;101646.28;5067894;28;20063;-55
2022/09/12 00:21:23;;;;;;;24.38;17.55;;;;;;;13.55;91.21;101642.13;5068742;28;20064;-57
2022/09/12 00:23:49;;;;;;;22.75;17.67;;;;;;;13.51;90.66;101635.44;5080118;28;20103;-58
2022/09/12 00:26:16;;;;;;;24.23;18.15;;;;;;;13.48;91.16;101649.09;5084931;28;20055;-56
2022/09/12 00:28:42;;;;;;;22.38;18.13;;;;;;;13.47;90.69;101643.91;5084718;28;20046;-57
2022/09/12 00:31:11;;;;;;;22.33;17.52;;;;;;;13.44;91.53;101645.03;5084802;28;20467;-55
2022/09/12 00:33:36;;;;;;;25.35;18.73;;;;;;;13.43;91.17;101643.38;5072799;28;20033;-55
2022/09/12 00:36:19;;;;;;;24.10;18.33;;;;;;;13.40;90.56;101639.19;5077769;28;20028;-57
2022/09/12 00:38:46;;;;;;;23.77;17.48;;;;;;;13.38;91.13;101633.19;5067872;28;20097;-55
2022/09/12 00:41:18;;;;;;;24.75;18.45;;;;;;;13.34;92.01;101633.66;5082965;28;20028;-55
2022/09/12 00:43:47;;;;;;;22.30;18.00;;;;;;;13.35;91.38;101630.00;5084733;28;20135;-55
2022/09/12 00:46:22;;;;;;;22.42;17.48;;;;;;;13.34;91.25;101626.53;5084684;28;20110;-56
2022/09/12 00:49:01;;;;;;;25.35;17.33;;;;;;;13.35;91.23;101630.00;5072957;28;20051;-58
2022/09/12 00:51:29;;;;;;;24.35;17.40;;;;;;;13.32;91.27;101626.69;5083604;28;20036;-55
2022/09/12 00:53:56;;;;;;;22.75;18.33;;;;;;;13.30;91.32;101626.00;5073054;28;20953;-56
2022/09/12 00:56:23;;;;;;;22.08;17.40;;;;;;;13.35;91.26;101625.53;5077766;28;20111;-55
2022/09/12 00:59:04;;;;;;;24.17;17.05;;;;;;;13.36;90.94;101621.03;5083096;28;20499;-57
2022/09/12 01:01:29;;;;;;;27.30;18.33;;;;;;;13.30;91.09;101623.34;5067935;28;20039;-57
2022/09/12 01:03:55;;;;;;;22.20;18.27;;;;;;;13.27;90.80;101615.66;5067240;28;20368;-56
2022/09/12 01:06:26;;;;;;;22.13;18.48;;;;;;;13.19;91.32;101612.97;5067794;28;20044;-54
2022/09/12 01:08:53;;;;;;;23.17;18.70;;;;;;;13.16;91.37;101616.78;5073868;28;20032;-57
2022/09/12 01:11:20;;;;;;;25.02;18.10;;;;;;;13.07;91.27;101606.28;5080395;28;20024;-54
2022/09/12 01:13:45;;;;;;;23.90;18.08;;;;;;;13.07;90.99;101600.94;5075842;28;20038;-56
2022/09/12 01:16:11;;;;;;;24.65;19.10;;;;;;;13.11;91.23;101602.28;5083142;28;20990;-57
2022/09/12 01:18:54;;;;;;;24.70;19.00;;;;;;;13.04;91.04;101602.91;5071268;28;20040;-56
2022/09/12 01:21:39;;;;;;;24.75;18.98;;;;;;;13.10;91.40;101603.28;5068603;28;20066;-56
2022/09/12 01:24:16;;;;;;;25.20;19.73;;;;;;;13.02;91.71;101599.59;5076805;28;21735;-56
2022/09/12 01:27:20;;;;;;;28.38;20.17;;;;;;;13.09;91.95;101598.94;5079040;28;20435;-56
2022/09/12 01:30:04;;;;;;;24.42;20.08;;;;;;;12.99;92.16;101599.91;5049924;28;21090;-55
2022/09/12 01:33:04;;;;;;;27.52;21.08;;;;;;;13.02;92.69;101588.94;5068883;28;20036;-58
2022/09/12 01:36:03;;;;;;;27.73;20.50;;;;;;;13.04;92.64;101591.44;5069937;28;20111;-56
2022/09/12 01:38:46;;;;;;;27.30;22.35;;;;;;;12.99;93.46;101594.59;5071244;28;20046;-55
2022/09/12 01:41:29;;;;;;;29.05;22.88;;;;;;;12.95;93.45;101590.56;5075420;28;20039;-54
2022/09/12 01:44:11;;;;;;;;;;;;;;;13.12;91.96;101588.00;5068911;28;20142;-56
2022/09/12 01:46:51;;;;;;;25.92;21.10;;;;;;;13.04;92.52;101586.94;5066750;28;20406;-55
2022/09/12 01:49:36;;;;;;;28.60;21.90;;;;;;;13.03;93.20;101584.44;5075035;28;20028;-55
2022/09/12 01:52:23;;;;;;;26.40;21.23;;;;;;;13.11;93.06;101591.63;5069635;28;20074;-56
2022/09/12 01:54:56;;;;;;;27.92;21.63;;;;;;;13.00;92.41;101585.59;5085718;28;20127;-55
2022/09/12 01:57:28;;;;;;;28.35;22.52;;;;;;;12.97;92.43;101585.91;5077806;28;20455;-55
2022/09/12 02:00:00;;;;;;;28.67;21.77;;;;;;;12.96;92.71;101573.59;5067625;28;20040;-55
2022/09/12 02:02:37;;;;;;;26.55;21.48;;;;;;;12.95;92.78;101566.59;5069117;28;20386;-54
2022/09/12 02:05:19;;;;;;;26.38;21.42;;;;;;;12.96;92.47;101565.59;5082457;28;20043;-56
2022/09/12 02:07:50;;;;;;;27.38;21.80;;;;;;;12.87;92.52;101550.59;5066069;28;20037;-55
2022/09/12 02:10:30;;;;;;;28.52;21.67;;;;;;;12.93;92.63;101557.94;5073959;28;20046;-55
2022/09/12 02:13:00;;;;;;;25.90;21.10;;;;;;;12.85;91.79;101555.25;5077764;28;20040;-56
2022/09/12 02:15:36;;;;;;;31.80;22.15;;;;;;;12.82;92.37;101550.25;5072363;28;20043;-55
2022/09/12 02:18:04;;;;;;;28.70;22.00;;;;;;;12.78;92.39;101544.38;5061844;28;20467;-54
2022/09/12 02:20:34;;;;;;;27.83;21.40;;;;;;;12.77;92.41;101553.38;5076206;28;20043;-56
2022/09/12 02:23:02;;;;;;;28.98;22.58;;;;;;;12.76;93.08;101549.88;5076022;28;20032;-55
2022/09/12 02:25:29;;;;;;;28.15;21.48;;;;;;;12.74;92.39;101551.84;5082133;28;20035;-56
2022/09/12 02:28:09;;;;;;;26.60;21.67;;;;;;;12.84;93.21;101557.09;5067716;28;20418;-57
2022/09/12 02:30:43;;;;;;;29.42;22.52;;;;;;;12.78;93.26;101560.34;5080122;28;20127;-56
2022/09/12 02:33:22;;;;;;;28.38;22.85;;;;;;;12.74;93.26;101559.84;5078822;28;20024;-54
2022/09/12 02:36:14;;;;;;;28.95;22.63;;;;;;;12.84;93.63;101567.72;5074880;28;20042;-55
2022/09/12 02:38:44;;;;;;;32.08;23.95;;;;;;;12.72;93.46;101561.81;5062268;28;20036;-56
2022/09/12 02:41:11;;;;;;;30.38;23.58;;;;;;;12.70;93.84;101566.47;5073286;28;20040;-54
2022/09/12 02:43:37;;;;;;;32.22;23.95;;;;;;;12.76;94.09;101563.19;5074497;28;20164;-53
2022/09/12 02:46:07;;;;;;;28.77;23.33;;;;;;;12.71;94.01;101554.00;5071246;28;20131;-55
2022/09/12 02:48:37;;;;;;;29.75;23.70;;;;;;;12.70;93.97;101553.19;5066996;28;20036;-55
2022/09/12 02:51:03;;;;;;;30.05;23.75;;;;;;;12.66;93.65;101541.19;5079590;28;20032;-57
2022/09/12 02:53:28;;;;;;;28.70;22.60;;;;;;;12.69;93.79;101546.19;5067517;28;20035;-55
2022/09/12 02:55:54;;;;;;;27.17;22.35;;;;;;;12.68;94.02;101544.50;5080146;28;20028;-55
2022/09/12 02:58:25;;;;;;;27.42;22.50;;;;;;;12.64;94.10;101545.84;5062157;28;20032;-56
2022/09/12 03:01:06;;;;;;;26.65;21.90;;;;;;;12.64;93.60;101535.19;5071545;28;20032;-54
2022/09/12 03:03:57;;;;;;;28.83;22.33;;;;;;;12.65;93.96;101539.50;5075387;28;20036;-56
2022/09/12 03:06:36;;;;;;;27.35;22.98;;;;;;;12.63;94.45;101530.88;5079242;28;20032;-55
2022/09/12 03:09:41;;;;;;;28.98;23.00;;;;;;;12.69;94.44;101530.22;5067724;28;20373;-55
2022/09/12 03:12:25;;;;;;;29.95;22.92;;;;;;;12.63;94.28;101531.69;5069092;28;20036;-56
2022/09/12 03:15:06;;;;;;;29.05;23.52;;;;;;;12.57;94.44;101531.47;5065931;28;20031;-55
2022/09/12 03:17:50;;;;;;;29.92;22.38;;;;;;;12.67;94.23;101528.72;5073200;28;20131;-57
2022/09/12 03:20:31;;;;;;;30.10;22.63;;;;;;;12.65;94.46;101527.03;5062833;28;20036;-55
2022/09/12 03:23:03;;;;;;;27.10;21.15;;;;;;;12.57;94.06;101518.16;5065066;28;20051;-57
2022/09/12 03:25:31;;;;;;;28.48;21.83;;;;;;;12.57;94.29;101521.66;5080824;28;20039;-55
2022/09/12 03:28:10;;;;;;;26.67;22.23;;;;;;;12.59;94.22;101521.53;5075639;28;20028;-55
2022/09/12 03:30:38;;;;;;;28.85;21.65;;;;;;;12.54;94.10;101521.16;5065327;28;20046;-54
2022/09/12 03:33:04;;;;;;;27.45;22.23;;;;;;;12.51;93.79;101523.16;5073006;28;20032;-55
2022/09/12 03:35:29;;;;;;;29.08;22.45;;;;;;;12.46;94.11;101522.78;5074461;28;20086;-55
2022/09/12 03:37:55;;;;;;;28.23;21.67;;;;;;;12.50;94.23;101524.13;5061420;28;20040;-55
2022/09/12 03:40:20;;;;;;;31.13;22.80;;;;;;;12.45;94.48;101518.47;5063045;28;20036;-56
2022/09/12 03:42:45;;;;;;;29.88;22.30;;;;;;;12.48;94.41;101517.31;5069025;28;20085;-55
2022/09/12 03:45:11;;;;;;;27.65;22.17;;;;;;;12.45;94.44;101521.13;5075065;28;20024;-55
2022/09/12 03:47:36;;;;;;;29.85;22.27;;;;;;;12.53;95.15;101519.50;5077695;28;20035;-54
2022/09/12 03:50:02;;;;;;;28.95;21.73;;;;;;;12.43;95.02;101523.09;5073234;28;20639;-54
2022/09/12 03:52:28;;;;;;;30.20;22.25;;;;;;;12.44;94.85;101516.75;5061866;28;20032;-55
2022/09/12 03:54:53;;;;;;;28.33;21.50;;;;;;;12.46;94.60;101520.13;5067363;28;20497;-56
2022/09/12 03:57:18;;;;;;;28.58;21.10;;;;;;;12.41;94.97;101506.47;5072907;28;20138;-57
2022/09/12 03:59:44;;;;;;;26.80;20.75;;;;;;;12.46;94.51;101509.47;5072920;28;20490;-56
2022/09/12 04:02:12;;;;;;;28.02;22.50;;;;;;;12.43;94.93;101504.47;5061996;28;20039;-55
2022/09/12 04:04:37;;;;;;;27.75;21.63;;;;;;;12.43;95.20;101504.47;5075256;28;20040;-55
2022/09/12 04:07:03;;;;;;;26.35;21.98;;;;;;;12.37;95.04;101500.63;5081512;28;20383;-54
2022/09/12 04:09:28;;;;;;;28.10;21.73;;;;;;;12.41;94.84;101502.94;5080078;28;20085;-55
2022/09/12 04:11:53;;;;;;;25.85;20.88;;;;;;;12.38;95.07;101501.44;5080408;28;20024;-57
2022/09/12 04:14:18;;;;;;;27.13;21.25;;;;;;;12.38;94.62;101501.44;5069115;28;20088;-55
2022/09/12 04:16:44;;;;;;;30.45;21.27;;;;;;;12.38;95.16;101499.63;5080584;28;20031;-55
2022/09/12 04:19:10;;;;;;;31.50;21.90;;;;;;;12.37;95.41;101497.97;5075906;28;20043;-54
2022/09/12 04:21:36;;;;;;;27.90;22.30;;;;;;;12.37;95.33;101489.13;5076251;28;20115;-54
2022/09/12 04:24:01;;;;;;;28.75;22.50;;;;;;;12.37;96.04;101495.31;5069706;28;20578;-55
2022/09/12 04:26:28;;;;;;;28.02;21.35;;;;;;;12.42;95.98;101491.31;5075731;28;20036;-54
2022/09/12 04:28:56;;;;;;;29.05;22.30;;;;;;;12.35;95.72;101493.78;5075411;28;20059;-54
2022/09/12 04:31:22;;;;;;;28.25;21.63;;;;;;;12.40;96.08;101488.84;5078349;28;20017;-55
2022/09/12 04:33:56;;;;;;;27.77;21.63;;;;;;;12.35;96.08;101485.81;5075515;28;20028;-54
2022/09/12 04:36:22;;;;;;;27.88;21.48;;;;;;;12.34;95.51;101484.97;5073097;28;20471;-55
2022/09/12 04:38:48;;;;;;;26.85;21.60;;;;;;;12.38;96.13;101480.16;5079975;28;20031;-54
2022/09/12 04:41:19;;;;;;;27.38;21.80;;;;;;;12.36;96.00;101487.47;5078419;28;20085;-55
2022/09/12 04:43:46;;;;;;;28.65;21.85;;;;;;;12.32;96.61;101480.78;5073534;28;20067;-55
2022/09/12 04:46:14;;;;;;;29.23;22.58;;;;;;;12.32;96.65;101478.97;5071725;28;20038;-56
2022/09/12 04:48:40;;;;;;;30.55;23.25;;;;;;;12.34;97.53;101470.84;5072085;28;20608;-55
2022/09/12 04:51:07;;;;;;;31.27;22.80;;;;;;;12.30;97.18;101472.16;5072917;28;20032;-54
2022/09/12 04:53:32;;;;;;;29.85;22.45;;;;;;;12.36;97.85;101483.00;5067675;28;20025;-57
2022/09/12 04:56:01;;;;;;;29.48;22.52;;;;;;;12.33;97.49;101482.47;5074190;28;20032;-57
2022/09/12 04:58:26;;;;;;;30.95;23.17;;;;;;;12.35;97.29;101486.63;5058989;28;20119;-55
2022/09/12 05:00:52;;;;;;;30.55;22.58;;;;;;;12.39;97.30;101481.84;5076326;28;20167;-55
2022/09/12 05:03:17;;;;;;;29.92;22.58;;;;;;;12.39;96.91;101481.84;5063966;28;20032;-56
2022/09/12 05:05:42;;;;;;;28.02;22.27;;;;;;;12.41;96.76;101485.19;5068367;28;20512;-55
2022/09/12 05:08:07;;;;;;;30.25;22.98;;;;;;;12.40;97.05;101483.50;5065225;28;20028;-55
2022/09/12 05:10:33;;;;;;;28.13;22.33;;;;;;;12.42;97.35;101481.53;5072996;28;20126;-59
2022/09/12 05:12:58;;;;;;;29.77;22.83;;;;;;;12.41;97.42;101482.53;5067072;28;20070;-58
2022/09/12 05:15:24;;;;;;;29.48;23.00;;;;;;;12.40;97.13;101488.00;5074092;28;20395;-61
2022/09/12 05:17:49;;;;;;;32.35;23.35;;;;;;;12.39;97.14;101489.84;5077980;28;20047;-58
2022/09/12 05:20:16;;;;;;;31.02;23.13;;;;;;;12.40;97.46;101483.50;5062205;28;20043;-58
2022/09/12 05:22:41;;;;;;;30.88;23.60;;;;;;;12.36;97.27;101488.31;5068898;28;20056;-57
2022/09/12 05:25:07;;;;;;;31.85;23.85;;;;;;;12.42;97.65;101489.50;5072548;28;20129;-60
2022/09/12 05:27:32;;;;;;;31.15;23.58;;;;;;;12.41;97.75;101493.16;5067646;28;20035;-58
2022/09/12 05:29:58;;;;;;;31.30;23.25;;;;;;;12.41;97.75;101485.19;5063625;28;20033;-59
2022/09/12 05:32:23;;;;;;;32.42;24.13;;;;;;;12.45;97.92;101486.53;5063745;28;20027;-57
2022/09/12 05:34:49;;;;;;;37.50;24.73;;;;;;;12.46;97.95;101487.34;5071029;28;20028;-58
2022/09/12 05:37:14;;;;;;;31.77;23.67;;;;;;;12.46;98.01;101482.88;5051793;28;20020;-58
2022/09/12 05:39:40;;;;;;;31.55;24.20;;;;;;;12.50;97.93;101478.06;5065525;28;20033;-56
2022/09/12 05:42:05;;;;;;;31.58;23.48;;;;;;;12.52;98.21;101486.72;5065367;28;20034;-57
2022/09/12 05:44:32;;;;;;;33.22;25.08;;;;;;;12.53;98.25;101487.56;5067794;28;20071;-57
2022/09/12 05:46:57;;;;;;;31.80;24.45;;;;;;;12.51;98.35;101485.06;5070546;28;20039;-57
2022/09/12 05:49:22;;;;;;;31.17;24.00;;;;;;;12.54;98.67;101489.22;5066384;28;20394;-57
2022/09/12 05:51:47;;;;;;;33.70;23.70;;;;;;;12.54;98.81;101486.56;5067274;28;20089;-58
2022/09/12 05:54:16;;;;;;;33.28;24.35;;;;;;;12.54;98.71;101495.41;5064672;28;21070;-58
2022/09/12 05:56:43;;;;;;;34.60;24.45;;;;;;;12.57;98.73;101496.88;5071735;28;20036;-58
2022/09/12 05:59:15;;;;;;;31.88;24.52;;;;;;;12.59;99.18;101497.56;5064891;28;20038;-57
2022/09/12 06:01:40;;;;;;;34.35;24.10;;;;;;;12.63;98.95;101502.41;5065767;28;20520;-58
2022/09/12 06:04:06;;;;;;;34.35;24.33;;;;;;;12.65;99.28;101503.06;5051995;28;20032;-57
2022/09/12 06:06:36;;;;;;;37.83;26.55;;;;;;;12.65;99.72;101507.59;5070798;28;20102;-59
2022/09/12 06:09:03;;;;;;;35.90;25.33;;;;;;;12.69;99.63;101506.28;5067108;28;20045;-58
2022/09/12 06:11:32;;;;;;;34.45;25.00;;;;;;;12.67;99.95;101508.25;5063219;28;20546;-58
2022/09/12 06:13:58;;;;;;;36.63;25.05;;;;;;;12.75;99.91;101508.31;5064289;28;20372;-58
2022/09/12 06:16:26;;;;;;;35.60;25.95;;;;;;;12.70;100.00;101509.75;5066842;28;20043;-57
2022/09/12 06:18:57;;;;;;;39.10;25.45;;;;;;;12.67;100.00;101505.59;5062615;28;20059;-58
2022/09/12 06:21:24;;;;;;;36.85;24.67;;;;;;;12.63;100.00;101504.25;5066979;28;20032;-58
2022/09/12 06:23:50;;;;;;;34.58;24.75;;;;;;;12.67;100.00;101508.25;5061198;28;20039;-57
2022/09/12 06:26:20;;;;;;;35.30;25.42;;;;;;;12.65;100.00;101507.59;5067032;28;20029;-58
2022/09/12 06:28:46;;;;;;;34.97;25.00;;;;;;;12.67;100.00;101499.44;5068625;28;20261;-57
2022/09/12 06:31:14;;;;;;;36.75;24.88;;;;;;;12.68;100.00;101495.78;5066077;28;20518;-58
2022/09/12 06:33:42;;;;;;;37.88;25.88;;;;;;;12.64;100.00;101495.28;5060416;28;20031;-57
2022/09/12 06:36:10;;;;;;;37.05;25.77;;;;;;;12.67;100.00;101494.94;5074163;28;20070;-58
2022/09/12 06:38:37;;;;;;;35.13;25.63;;;;;;;12.67;100.00;101492.28;5065433;28;20043;-58
2022/09/12 06:41:06;;;;;;;36.58;25.67;;;;;;;12.68;100.00;101496.59;5061101;28;20403;-57
2022/09/12 06:43:32;;;;;;;36.05;26.58;;;;;;;12.70;100.00;101491.13;5063269;28;20385;-58
2022/09/12 06:45:58;;;;;;;36.40;26.60;;;;;;;12.70;100.00;101494.63;5072638;28;20035;-58
2022/09/12 06:48:23;;;;;;;35.65;26.25;;;;;;;12.76;100.00;101494.00;5080563;28;20039;-56
2022/09/12 06:51:01;;;;;;;35.80;25.38;;;;;;;12.89;100.00;101492.72;5077477;28;20029;-58
2022/09/12 06:53:27;;;;;;;35.33;25.38;;;;;;;12.95;100.00;101492.06;5078416;28;20928;-58
2022/09/12 06:55:57;;;;;;;34.15;24.67;;;;;;;13.01;100.00;101490.56;5083250;28;20035;-58
2022/09/12 06:58:24;;;;;;;35.22;24.83;;;;;;;13.08;100.00;101496.09;5061389;28;20033;-58
2022/09/12 07:00:50;;;;;;;33.63;25.13;;;;;;;13.11;100.00;101493.09;5060096;28;20044;-58
2022/09/12 07:03:15;;;;;;;35.20;24.85;;;;;;;13.15;100.00;101492.63;5059720;28;20039;-58
2022/09/12 07:05:40;;;;;;;32.90;23.95;;;;;;;13.19;100.00;101498.47;5067715;28;20044;-58
2022/09/12 07:08:05;;;;;;;33.15;24.75;;;;;;;13.20;100.00;101494.81;5070698;28;20021;-58
2022/09/12 07:10:31;;;;;;;34.60;24.98;;;;;;;13.24;100.00;101489.97;5062963;28;20032;-57
2022/09/12 07:12:57;;;;;;;32.33;24.02;;;;;;;13.26;100.00;101488.81;5070045;28;20029;-57
2022/09/12 07:15:23;;;;;;;34.13;25.27;;;;;;;13.34;100.00;101495.16;5079494;28;20564;-57
2022/09/12 07:17:48;;;;;;;36.72;25.38;;;;;;;13.41;100.00;101494.34;5060021;28;20033;-59
2022/09/12 07:20:15;;;;;;;34.28;25.58;;;;;;;13.47;100.00;101495.53;5070103;28;20028;-58
2022/09/12 07:22:40;;;;;;;35.33;24.85;;;;;;;13.55;100.00;101487.56;5068846;28;20145;-57
2022/09/12 07:25:06;;;;;;;33.03;24.48;;;;;;;13.63;100.00;101488.56;5063507;28;20024;-59
2022/09/12 07:27:31;;;;;;;33.45;25.10;;;;;;;13.70;100.00;101484.22;5077499;28;20569;-56
2022/09/12 07:29:56;;;;;;;33.17;24.05;;;;;;;13.78;100.00;101486.91;5066625;28;20036;-59
2022/09/12 07:32:22;;;;;;;30.77;23.50;;;;;;;13.87;100.00;101489.56;5076956;28;20027;-60
2022/09/12 07:34:48;;;;;;;32.15;23.38;;;;;;;13.92;100.00;101482.72;5070747;28;20055;-57
2022/09/12 07:37:14;;;;;;;31.42;23.77;;;;;;;14.01;100.00;101480.88;5070426;28;20041;-60
2022/09/12 07:39:39;;;;;;;31.67;23.08;;;;;;;14.08;100.00;101481.06;5076176;28;20039;-60
2022/09/12 07:42:05;;;;;;;30.70;23.15;;;;;;;14.12;100.00;101480.53;5079196;28;20075;-58
2022/09/12 07:44:31;;;;;;;31.02;23.15;;;;;;;14.20;100.00;101494.84;5069444;28;20246;-57
2022/09/12 07:46:57;;;;;;;30.38;22.55;;;;;;;14.26;100.00;101495.03;5083030;28;20033;-57
2022/09/12 07:49:22;;;;;;;28.38;22.85;;;;;;;14.34;100.00;101502.19;5068826;28;20043;-57
2022/09/12 07:51:48;;;;;;;28.02;21.40;;;;;;;14.39;100.00;101499.00;5072756;28;20032;-59
2022/09/12 07:54:13;;;;;;;28.23;21.92;;;;;;;14.47;100.00;101496.31;5062042;28;20664;-57
2022/09/12 07:56:39;;;;;;;29.80;22.40;;;;;;;14.55;100.00;101492.78;5063718;28;20510;-57
2022/09/12 07:59:05;;;;;;;29.83;22.15;;;;;;;14.60;100.00;101506.44;5064687;28;20090;-56
2022/09/12 08:01:30;;;;;;;29.33;21.40;;;;;;;14.69;99.24;101503.75;5078141;28;20491;-56
2022/09/12 08:03:58;;;;;;;29.27;21.40;;;;;;;14.73;99.45;101502.38;5074440;28;20483;-58
2022/09/12 08:06:25;;;;;;;30.05;20.88;;;;;;;14.78;98.96;101486.72;5078278;28;20028;-59
2022/09/12 08:08:53;;;;;;;28.02;21.08;;;;;;;14.86;98.69;101492.00;5065591;28;20032;-59
2022/09/12 08:11:20;;;;;;;27.10;20.85;;;;;;;14.93;98.70;101497.50;5069905;28;20036;-58
2022/09/12 08:13:47;;;;;;;29.20;20.52;;;;;;;15.06;98.73;101499.63;5076041;28;20076;-58
2022/09/12 08:16:15;;;;;;;27.73;20.83;;;;;;;15.10;97.96;101494.75;5087365;28;20034;-58
2022/09/12 08:18:41;;;;;;;28.92;20.50;;;;;;;15.22;98.01;101497.84;5067341;28;20556;-58
2022/09/12 08:21:12;;;;;;;25.33;20.20;;;;;;;15.28;96.76;101497.13;5063569;28;20051;-57
2022/09/12 08:23:37;;;;;;;26.77;20.52;;;;;;;15.38;97.09;101496.91;5063665;28;20392;-58
2022/09/12 08:26:04;;;;;;;27.77;20.20;;;;;;;15.44;97.76;101499.69;5079060;28;20039;-57
2022/09/12 08:28:31;;;;;;;25.70;19.52;;;;;;;15.52;96.60;101506.00;5067454;28;20043;-57
2022/09/12 08:31:07;;;;;;;23.80;18.85;;;;;;;15.56;96.57;101509.97;5066071;28;20051;-58
2022/09/12 08:33:33;;;;;;;27.20;20.00;;;;;;;15.63;96.63;101510.94;5073122;28;20051;-55
2022/09/12 08:36:06;;;;;;;26.33;19.30;;;;;;;15.69;96.72;101507.53;5080396;28;20479;-58
2022/09/12 08:38:33;;;;;;;24.98;18.92;;;;;;;15.79;96.32;101514.50;5081656;28;20118;-56
2022/09/12 08:41:29;;;;;;;26.90;18.77;;;;;;;15.90;96.12;101506.06;5067856;28;20081;-58
2022/09/12 08:44:03;;;;;;;24.45;19.15;;;;;;;15.98;94.86;101513.19;5069781;28;20075;-61
2022/09/12 08:46:55;;;;;;;24.80;19.27;;;;;;;16.05;95.17;101502.59;5079584;28;20068;-60
2022/09/12 08:49:47;;;;;;;26.05;19.75;;;;;;;16.13;95.37;101510.53;5054908;28;20052;-59
2022/09/12 08:52:51;;;;;;;25.58;19.45;;;;;;;16.24;94.35;101507.41;5077271;28;20848;-59
2022/09/12 08:55:25;;;;;;;27.23;19.45;;;;;;;16.31;93.60;101504.84;5038633;28;21231;-59
2022/09/12 08:57:52;;;;;;;27.27;19.13;;;;;;;16.43;94.69;101499.03;5072218;28;20043;-60
2022/09/12 09:00:18;;;;;;;25.73;19.52;;;;;;;16.45;93.84;101500.53;5078007;28;20031;-59
2022/09/12 09:02:55;;;;;;;25.00;18.63;;;;;;;16.51;94.04;101491.75;5066209;28;20063;-60
2022/09/12 09:05:40;;;;;;;24.70;18.88;;;;;;;16.57;94.80;101490.16;5071527;28;20410;-60
2022/09/12 09:08:23;;;;;;;21.75;17.15;;;;;;;16.65;93.82;101494.59;5062244;28;20040;-60
2022/09/12 09:11:06;;;;;;;21.70;16.95;;;;;;;16.76;92.99;101494.13;5066532;28;20062;-60
2022/09/12 09:17:01;;;;;;;22.65;16.35;;;;;;;16.90;91.58;101484.41;5079434;28;20083;-60
2022/09/12 09:19:36;;;;;;;20.60;15.15;;;;;;;16.95;91.06;101486.50;5061607;28;20032;-59
2022/09/12 09:22:03;;;;;;;17.98;14.02;;;;;;;17.01;90.37;101474.19;5068220;28;20036;-59
2022/09/12 09:24:39;;;;;;;18.00;13.90;;;;;;;17.06;90.42;101478.03;5078417;28;20459;-59
2022/09/12 09:27:16;;;;;;;16.92;12.93;;;;;;;17.21;89.25;101480.66;5084705;28;20533;-60
2022/09/12 09:29:49;;;;;;;18.35;13.05;;;;;;;17.29;89.41;101482.41;5073677;28;20115;-60
2022/09/12 09:32:25;;;;;;;18.70;13.00;;;;;;;17.34;87.74;101474.63;5069897;28;20083;-61
2022/09/12 09:34:51;;;;;;;15.45;12.00;;;;;;;17.50;88.52;101478.03;5074909;28;20039;-58
2022/09/12 09:37:29;;;;;;;16.85;11.90;;;;;;;17.49;84.88;101471.03;5075922;28;20055;-60
2022/09/12 09:40:02;;;;;;;16.95;12.52;;;;;;;17.58;84.98;101475.22;5066682;28;20040;-59
2022/09/12 09:42:44;;;;;;;18.75;12.52;;;;;;;17.70;84.76;101477.38;5066817;28;20028;-59
2022/09/12 09:45:15;;;;;;;15.18;11.55;;;;;;;17.78;84.82;101469.22;5072865;28;20028;-60
2022/09/12 09:48:13;;;;;;;17.45;11.68;;;;;;;17.86;84.73;101465.56;5076116;28;20043;-59
2022/09/12 09:50:38;;;;;;;18.48;12.10;;;;;;;17.97;83.74;101466.88;5063139;28;20055;-61
2022/09/12 09:53:11;;;;;;;16.20;10.77;;;;;;;18.03;82.16;101460.72;5073123;28;20032;-59
2022/09/12 09:55:41;;;;;;;;;;;;;;;18.04;85.51;101457.00;5087674;28;20107;-59
2022/09/12 09:58:07;;;;;;;13.50;10.60;;;;;;;18.24;80.55;101450.97;5086627;28;19939;-60
2022/09/12 10:00:35;;;;;;;14.57;11.43;;;;;;;18.26;80.99;101448.91;5074086;28;20109;-59
2022/09/12 10:03:09;;;;;;;15.07;10.38;;;;;;;18.30;79.41;101444.78;5085268;28;20032;-60
2022/09/12 10:05:47;;;;;;;13.20;10.10;;;;;;;18.35;79.54;101442.34;5085125;28;20039;-60
2022/09/12 10:08:27;;;;;;;15.02;10.52;;;;;;;18.47;79.09;101441.78;5073117;28;20040;-59
2022/09/12 10:11:03;;;;;;;12.20;9.30;;;;;;;18.51;78.19;101435.00;5079722;28;20067;-59
2022/09/12 10:13:34;;;;;;;10.77;8.35;;;;;;;18.58;77.03;101441.22;5066342;28;20435;-58
2022/09/12 10:16:02;;;;;;;11.70;8.68;;;;;;;18.80;77.20;101438.41;5085036;28;20111;-58
2022/09/12 10:18:40;;;;;;;13.95;10.00;;;;;;;18.81;77.23;101429.31;5069561;28;20035;-58
2022/09/12 10:21:17;;;;;;;25.10;9.55;;;;;;;18.88;76.11;101419.41;5069566;28;20541;-57
2022/09/12 10:23:45;;;;;;;11.55;8.18;;;;;;;18.92;72.60;101425.22;5073343;28;20028;-57
2022/09/12 10:26:13;;;;;;;9.20;7.95;;;;;;;18.99;74.04;101414.47;5080108;28;20442;-57
2022/09/12 10:28:45;;;;;;;10.60;7.88;;;;;;;19.11;72.96;101414.72;5073518;28;20040;-57
2022/09/12 10:31:27;;;;;;;12.45;8.63;;;;;;;19.16;75.13;101415.78;5084317;28;20089;-57
2022/09/12 10:33:56;;;;;;;12.80;9.13;;;;;;;19.18;74.54;101407.50;5069694;28;20036;-58
2022/09/12 10:36:23;;;;;;;11.75;7.70;;;;;;;19.26;73.28;101403.78;5087144;28;20042;-58
2022/09/12 10:38:51;;;;;;;8.30;7.15;;;;;;;19.33;73.51;101399.22;5066479;28;20024;-57
2022/09/12 10:41:18;;;;;;;9.57;7.40;;;;;;;19.43;72.87;101399.66;5071699;28;20048;-58
2022/09/12 10:43:43;;;;;;;11.20;7.97;;;;;;;19.51;70.97;101400.47;5064446;28;20056;-57
2022/09/12 10:46:15;;;;;;;12.40;8.32;;;;;;;19.59;71.83;101386.81;5090288;28;20548;-57
2022/09/12 10:48:42;;;;;;;12.32;8.70;;;;;;;19.61;70.17;101395.50;5070728;28;20118;-59
2022/09/12 10:51:24;;;;;;;9.15;6.68;;;;;;;19.73;72.08;101387.63;5081244;28;20039;-57
2022/09/12 10:53:53;;;;;;;;;;;;;;;19.81;72.28;101389.25;5070464;28;20093;-58
2022/09/12 10:56:30;;;;;;;8.68;5.47;;;;;;;19.99;68.69;101381.38;5085020;28;19916;-56
2022/09/12 10:59:26;;;;;;;7.72;5.95;;;;;;;20.11;69.14;101373.50;5069610;28;20131;-57
2022/09/12 11:02:00;;;;;;;7.13;5.90;;;;;;;20.18;69.66;101372.63;5071096;28;20802;-58
2022/09/12 11:04:54;;;;;;;8.40;5.97;;;;;;;20.24;70.38;101367.22;5072473;28;20051;-57
2022/09/12 11:07:32;;;;;;;7.82;5.70;;;;;;;20.38;68.69;101356.41;5069431;28;20029;-58
2022/09/12 11:10:29;;;;;;;7.53;5.28;;;;;;;20.56;67.00;101366.44;5078177;28;20032;-58
2022/09/12 11:13:13;;;;;;;5.72;4.82;;;;;;;20.64;64.29;101357.28;5065840;28;20498;-57
2022/09/12 11:15:43;;;;;;;5.88;4.45;;;;;;;20.75;63.77;101364.69;5074736;28;20051;-57
2022/09/12 11:18:27;;;;;;;8.93;4.70;;;;;;;20.83;62.37;101367.13;5068026;28;20043;-56
2022/09/12 11:21:24;;;;;;;5.88;4.80;;;;;;;20.89;64.27;101353.84;5080280;28;20537;-58
2022/09/12 11:24:27;;;;;;;7.63;4.88;;;;;;;20.95;64.93;101359.19;5070856;28;20036;-57
2022/09/12 11:27:21;;;;;;;6.15;4.65;;;;;;;21.02;62.81;101356.44;5074724;28;20107;-57
2022/09/12 11:29:51;;;;;;;6.82;4.85;;;;;;;20.99;61.41;101351.50;5070752;28;20483;-57
2022/09/12 11:32:39;;;;;;;7.43;4.55;;;;;;;21.06;63.93;101340.63;5060519;28;20407;-57